createdAt,value
2017-08-31T00:00:11.285Z,98
2017-08-31T00:01:13.678Z,98
2017-08-31T00:02:16.070Z,98
2017-08-31T00:03:18.464Z,98
2017-08-31T00:04:20.851Z,98
2017-08-31T00:05:23.242Z,98
2017-08-31T00:06:25.632Z,98
2017-08-31T00:07:28.025Z,98
2017-08-31T00:08:30.414Z,98
2017-08-31T00:09:33.151Z,98
2017-08-31T00:10:35.881Z,98
2017-08-31T00:11:38.273Z,98
2017-08-31T00:12:40.665Z,98
2017-08-31T00:13:43.057Z,98
2017-08-31T00:14:45.450Z,98
2017-08-31T00:15:47.841Z,98
2017-08-31T00:16:50.235Z,98
2017-08-31T00:17:52.968Z,98
2017-08-31T00:18:55.358Z,98
2017-08-31T00:19:57.750Z,98
2017-08-31T00:21:00.144Z,98
2017-08-31T00:22:02.535Z,98
2017-08-31T00:23:04.934Z,98
2017-08-31T00:24:07.349Z,98
2017-08-31T00:25:09.765Z,98
2017-08-31T00:26:12.177Z,98
2017-08-31T00:27:14.591Z,98
2017-08-31T00:28:16.996Z,98
2017-08-31T00:29:19.408Z,98
2017-08-31T00:30:21.817Z,98
2017-08-31T00:31:24.232Z,98
2017-08-31T00:32:26.640Z,98
2017-08-31T00:33:29.051Z,99
2017-08-31T00:34:31.468Z,99
2017-08-31T00:35:33.881Z,99
2017-08-31T00:36:36.296Z,99
2017-08-31T00:37:38.706Z,99
2017-08-31T00:38:41.125Z,99
2017-08-31T00:39:43.537Z,99
2017-08-31T00:40:45.943Z,99
2017-08-31T00:41:48.353Z,99
2017-08-31T00:42:50.770Z,99
2017-08-31T00:43:53.187Z,99
2017-08-31T00:44:55.596Z,99
2017-08-31T00:45:58.011Z,99
2017-08-31T00:47:00.422Z,99
2017-08-31T00:48:02.844Z,99
2017-08-31T00:49:05.260Z,99
2017-08-31T00:50:07.668Z,99
2017-08-31T00:51:10.086Z,99
2017-08-31T00:52:12.501Z,99
2017-08-31T00:53:15.270Z,99
2017-08-31T00:54:17.661Z,99
2017-08-31T00:55:20.076Z,99
2017-08-31T00:56:22.484Z,99
2017-08-31T00:57:24.895Z,99
2017-08-31T00:58:27.306Z,99
2017-08-31T00:59:29.720Z,99
2017-08-31T01:00:32.136Z,99
2017-08-31T01:01:34.545Z,99
2017-08-31T01:02:36.942Z,99
2017-08-31T01:03:39.356Z,99
2017-08-31T01:04:41.762Z,99
2017-08-31T01:05:44.174Z,100
2017-08-31T01:06:46.595Z,100
2017-08-31T01:07:49.004Z,100
2017-08-31T01:08:51.417Z,100
2017-08-31T01:09:53.823Z,100
2017-08-31T01:10:56.234Z,100
2017-08-31T01:11:58.648Z,100
2017-08-31T01:13:01.065Z,100
2017-08-31T01:14:03.474Z,100
2017-08-31T01:15:05.886Z,100
2017-08-31T01:16:08.303Z,100
2017-08-31T01:17:11.053Z,100
2017-08-31T01:18:13.463Z,100
2017-08-31T01:19:15.874Z,100
2017-08-31T01:20:18.285Z,100
2017-08-31T01:21:20.688Z,99
2017-08-31T01:22:23.100Z,99
2017-08-31T01:23:25.516Z,99
2017-08-31T01:24:27.921Z,99
2017-08-31T01:25:30.327Z,100
2017-08-31T01:26:32.742Z,99
2017-08-31T01:27:35.139Z,100
2017-08-31T01:28:37.565Z,100
2017-08-31T01:29:39.976Z,100
2017-08-31T01:30:42.381Z,100
2017-08-31T01:31:44.797Z,100
2017-08-31T01:32:47.210Z,100
2017-08-31T01:33:49.617Z,100
2017-08-31T01:34:52.038Z,100
2017-08-31T01:35:54.448Z,100
2017-08-31T01:36:56.861Z,100
2017-08-31T01:37:59.623Z,100
2017-08-31T01:39:02.027Z,100
2017-08-31T01:40:04.437Z,100
2017-08-31T01:41:07.184Z,100
2017-08-31T01:42:09.594Z,100
2017-08-31T01:43:12.010Z,100
2017-08-31T01:44:14.424Z,100
2017-08-31T01:45:16.831Z,100
2017-08-31T01:46:19.247Z,100
2017-08-31T01:47:21.660Z,100
2017-08-31T01:48:24.071Z,100
2017-08-31T01:49:26.485Z,100
2017-08-31T01:50:28.895Z,100
2017-08-31T01:51:31.311Z,100
2017-08-31T01:52:33.737Z,100
2017-08-31T01:53:36.144Z,100
2017-08-31T01:54:38.551Z,100
2017-08-31T01:55:41.322Z,100
2017-08-31T01:56:43.738Z,100
2017-08-31T01:57:46.157Z,100
2017-08-31T01:58:48.575Z,100
2017-08-31T01:59:50.980Z,100
2017-08-31T02:00:53.399Z,100
2017-08-31T02:01:55.808Z,100
2017-08-31T02:02:58.218Z,100
2017-08-31T02:04:00.624Z,100
2017-08-31T02:05:03.031Z,100
2017-08-31T02:06:05.440Z,100
2017-08-31T02:07:07.854Z,100
2017-08-31T02:08:10.258Z,100
2017-08-31T02:09:12.674Z,100
2017-08-31T02:10:15.087Z,100
2017-08-31T02:11:17.508Z,100
2017-08-31T02:12:19.920Z,100
2017-08-31T02:13:22.337Z,100
2017-08-31T02:14:25.111Z,100
2017-08-31T02:15:27.530Z,100
2017-08-31T02:16:29.938Z,100
2017-08-31T02:17:32.352Z,100
2017-08-31T02:18:35.093Z,100
2017-08-31T02:19:37.511Z,100
2017-08-31T02:20:39.931Z,100
2017-08-31T02:21:42.338Z,100
2017-08-31T02:22:44.747Z,100
2017-08-31T02:23:47.164Z,100
2017-08-31T02:24:49.576Z,100
2017-08-31T02:25:51.975Z,100
2017-08-31T02:26:54.399Z,100
2017-08-31T02:27:56.798Z,100
2017-08-31T02:28:59.214Z,100
2017-08-31T02:30:01.632Z,100
2017-08-31T02:31:04.035Z,100
2017-08-31T02:32:06.443Z,100
2017-08-31T02:33:08.864Z,100
2017-08-31T02:34:11.607Z,100
2017-08-31T02:35:14.023Z,100
2017-08-31T02:36:16.429Z,100
2017-08-31T02:37:18.845Z,100
2017-08-31T02:38:21.596Z,100
2017-08-31T02:39:24.011Z,100
2017-08-31T02:40:26.424Z,100
2017-08-31T02:41:28.840Z,100
2017-08-31T02:42:31.591Z,100
2017-08-31T02:43:34.001Z,100
2017-08-31T02:44:36.416Z,100
2017-08-31T02:45:38.828Z,100
2017-08-31T02:46:41.233Z,100
2017-08-31T02:47:43.640Z,100
2017-08-31T02:48:46.057Z,100
2017-08-31T02:49:48.462Z,100
2017-08-31T02:50:50.874Z,100
2017-08-31T02:51:53.298Z,100
2017-08-31T02:52:55.707Z,100
2017-08-31T02:53:58.117Z,100
2017-08-31T02:55:00.529Z,100
2017-08-31T02:56:02.945Z,100
2017-08-31T02:57:05.353Z,100
2017-08-31T02:58:07.765Z,100
2017-08-31T02:59:10.169Z,100
2017-08-31T03:00:12.584Z,100
2017-08-31T03:01:15.002Z,100
2017-08-31T03:02:17.418Z,100
2017-08-31T03:03:19.828Z,100
2017-08-31T03:04:22.246Z,100
2017-08-31T03:05:24.656Z,100
2017-08-31T03:06:27.074Z,100
2017-08-31T03:07:29.488Z,100
2017-08-31T03:08:32.237Z,100
2017-08-31T03:09:34.644Z,100
2017-08-31T03:10:37.061Z,100
2017-08-31T03:11:39.467Z,100
2017-08-31T03:12:41.882Z,100
2017-08-31T03:13:44.298Z,100
2017-08-31T03:14:47.050Z,100
2017-08-31T03:15:49.458Z,100
2017-08-31T03:16:51.876Z,100
2017-08-31T03:17:54.302Z,100
2017-08-31T03:18:56.690Z,100
2017-08-31T03:19:59.103Z,100
2017-08-31T03:21:01.519Z,100
2017-08-31T03:22:03.933Z,100
2017-08-31T03:23:06.698Z,100
2017-08-31T03:24:09.106Z,100
2017-08-31T03:25:11.515Z,100
2017-08-31T03:26:13.923Z,100
2017-08-31T03:27:16.332Z,100
2017-08-31T03:28:18.741Z,100
2017-08-31T03:29:21.152Z,100
2017-08-31T03:30:23.562Z,100
2017-08-31T03:31:25.978Z,100
2017-08-31T03:32:28.385Z,100
2017-08-31T03:33:30.796Z,100
2017-08-31T03:34:33.216Z,100
2017-08-31T03:35:35.630Z,100
2017-08-31T03:36:38.042Z,100
2017-08-31T03:37:40.453Z,100
2017-08-31T03:38:42.868Z,100
2017-08-31T03:39:45.277Z,100
2017-08-31T03:40:47.687Z,100
2017-08-31T03:41:50.091Z,100
2017-08-31T03:42:52.506Z,100
2017-08-31T03:43:54.924Z,100
2017-08-31T03:44:57.333Z,100
2017-08-31T03:45:59.739Z,100
2017-08-31T03:47:02.145Z,100
2017-08-31T03:48:04.566Z,100
2017-08-31T03:49:06.973Z,100
2017-08-31T03:50:09.379Z,100
2017-08-31T03:51:11.797Z,100
2017-08-31T03:52:14.208Z,100
2017-08-31T03:53:16.617Z,100
2017-08-31T03:54:19.030Z,100
2017-08-31T03:55:21.441Z,100
2017-08-31T03:56:23.860Z,100
2017-08-31T03:57:26.276Z,100
2017-08-31T03:58:28.677Z,100
2017-08-31T03:59:31.086Z,100
2017-08-31T04:00:33.503Z,100
2017-08-31T04:01:35.914Z,100
2017-08-31T04:02:38.329Z,100
2017-08-31T04:03:41.080Z,100
2017-08-31T04:04:43.485Z,100
2017-08-31T04:05:45.900Z,100
2017-08-31T04:06:48.313Z,100
2017-08-31T04:07:50.709Z,100
2017-08-31T04:08:53.124Z,100
2017-08-31T04:09:55.544Z,100
2017-08-31T04:10:57.949Z,100
2017-08-31T04:12:00.360Z,100
2017-08-31T04:13:02.770Z,100
2017-08-31T04:14:05.174Z,100
2017-08-31T04:15:07.593Z,100
2017-08-31T04:16:10.003Z,100
2017-08-31T04:17:12.407Z,100
2017-08-31T04:18:14.822Z,100
2017-08-31T04:19:17.572Z,100
2017-08-31T04:20:19.986Z,100
2017-08-31T04:21:22.395Z,100
2017-08-31T04:22:24.814Z,100
2017-08-31T04:23:27.228Z,100
2017-08-31T04:24:29.632Z,100
2017-08-31T04:25:32.045Z,100
2017-08-31T04:26:34.467Z,100
2017-08-31T04:27:36.875Z,100
2017-08-31T04:28:39.286Z,100
2017-08-31T04:29:41.690Z,100
2017-08-31T04:30:44.102Z,100
2017-08-31T04:31:46.527Z,100
2017-08-31T04:32:48.931Z,100
2017-08-31T04:33:51.346Z,100
2017-08-31T04:34:53.758Z,100
2017-08-31T04:35:56.168Z,100
2017-08-31T04:36:58.579Z,100
2017-08-31T04:38:00.999Z,100
2017-08-31T04:39:03.404Z,100
2017-08-31T04:40:05.823Z,100
2017-08-31T04:41:08.232Z,100
2017-08-31T04:42:10.648Z,100
2017-08-31T04:43:13.054Z,100
2017-08-31T04:44:15.472Z,100
2017-08-31T04:45:17.886Z,100
2017-08-31T04:46:20.638Z,100
2017-08-31T04:47:23.056Z,100
2017-08-31T04:48:25.464Z,100
2017-08-31T04:49:27.878Z,100
2017-08-31T04:50:30.294Z,100
2017-08-31T04:51:32.712Z,100
2017-08-31T04:52:35.123Z,100
2017-08-31T04:53:37.540Z,100
2017-08-31T04:54:39.946Z,100
2017-08-31T04:55:42.710Z,100
2017-08-31T04:56:45.117Z,100
2017-08-31T04:57:47.524Z,100
2017-08-31T04:58:49.933Z,100
2017-08-31T04:59:52.402Z,100
2017-08-31T05:00:54.847Z,100
2017-08-31T05:01:57.262Z,100
2017-08-31T05:02:59.676Z,100
2017-08-31T05:04:02.089Z,100
2017-08-31T05:05:04.537Z,100
2017-08-31T05:06:06.956Z,100
2017-08-31T05:07:10.050Z,100
2017-08-31T05:08:12.461Z,100
2017-08-31T05:09:14.879Z,100
2017-08-31T05:10:17.291Z,100
2017-08-31T05:11:19.701Z,100
2017-08-31T05:12:22.113Z,100
2017-08-31T05:13:24.532Z,100
2017-08-31T05:14:26.944Z,100
2017-08-31T05:15:29.365Z,100
2017-08-31T05:16:31.773Z,100
2017-08-31T05:17:34.190Z,100
2017-08-31T05:18:36.607Z,100
2017-08-31T05:19:39.013Z,100
2017-08-31T05:20:41.733Z,99
2017-08-31T05:21:44.154Z,99
2017-08-31T05:22:46.561Z,99
2017-08-31T05:23:48.977Z,99
2017-08-31T05:24:51.728Z,99
2017-08-31T05:25:54.142Z,99
2017-08-31T05:26:56.565Z,99
2017-08-31T05:27:59.332Z,99
2017-08-31T05:29:01.743Z,99
2017-08-31T05:30:04.169Z,98
2017-08-31T05:31:06.578Z,98
2017-08-31T05:32:08.990Z,98
2017-08-31T05:33:11.408Z,98
2017-08-31T05:34:13.823Z,98
2017-08-31T05:35:16.234Z,98
2017-08-31T05:36:18.646Z,98
2017-08-31T05:37:21.052Z,98
2017-08-31T05:38:23.468Z,98
2017-08-31T05:39:25.881Z,98
2017-08-31T05:40:28.286Z,98
2017-08-31T05:41:30.705Z,98
2017-08-31T05:42:33.122Z,98
2017-08-31T05:43:35.539Z,98
2017-08-31T05:44:38.637Z,98
2017-08-31T05:45:41.049Z,98
2017-08-31T05:46:43.454Z,98
2017-08-31T05:47:46.204Z,98
2017-08-31T05:48:48.661Z,98
2017-08-31T05:49:51.079Z,98
2017-08-31T05:50:53.492Z,98
2017-08-31T05:51:55.899Z,98
2017-08-31T05:52:58.301Z,98
2017-08-31T05:54:00.720Z,98
2017-08-31T05:55:03.489Z,98
2017-08-31T05:56:05.966Z,98
2017-08-31T05:57:08.390Z,98
2017-08-31T05:58:10.801Z,98
2017-08-31T05:59:13.215Z,98
2017-08-31T06:00:15.827Z,98
2017-08-31T06:01:18.311Z,98
2017-08-31T06:02:20.726Z,98
2017-08-31T06:03:23.139Z,98
2017-08-31T06:04:25.553Z,98
2017-08-31T06:05:27.960Z,98
2017-08-31T06:06:30.376Z,98
2017-08-31T06:07:32.791Z,98
2017-08-31T06:08:35.200Z,97
2017-08-31T06:09:37.620Z,97
2017-08-31T06:10:40.035Z,97
2017-08-31T06:11:42.443Z,97
2017-08-31T06:12:44.858Z,96
2017-08-31T06:13:47.263Z,96
2017-08-31T06:14:49.675Z,96
2017-08-31T06:15:52.094Z,96
2017-08-31T06:16:54.501Z,96
2017-08-31T06:17:56.915Z,96
2017-08-31T06:18:59.681Z,96
2017-08-31T06:20:02.089Z,96
2017-08-31T06:21:04.499Z,96
2017-08-31T06:22:06.913Z,96
2017-08-31T06:23:09.325Z,96
2017-08-31T06:24:11.741Z,95
2017-08-31T06:25:14.154Z,95
2017-08-31T06:26:16.562Z,94
2017-08-31T06:27:18.979Z,94
2017-08-31T06:28:21.394Z,94
2017-08-31T06:29:23.802Z,94
2017-08-31T06:30:26.211Z,95
2017-08-31T06:31:28.617Z,95
2017-08-31T06:32:31.029Z,94
2017-08-31T06:33:33.450Z,94
2017-08-31T06:34:35.858Z,94
2017-08-31T06:35:38.270Z,94
2017-08-31T06:36:40.684Z,94
2017-08-31T06:37:43.107Z,93
2017-08-31T06:38:45.859Z,93
2017-08-31T06:39:48.276Z,93
2017-08-31T06:40:50.684Z,92
2017-08-31T06:41:53.097Z,92
2017-08-31T06:42:55.509Z,91
2017-08-31T06:43:57.922Z,92
2017-08-31T06:45:00.329Z,91
2017-08-31T06:46:02.746Z,92
2017-08-31T06:47:05.163Z,92
2017-08-31T06:48:07.578Z,91
2017-08-31T06:49:09.987Z,92
2017-08-31T06:50:12.400Z,92
2017-08-31T06:51:14.805Z,92
2017-08-31T06:52:17.219Z,91
2017-08-31T06:53:19.636Z,91
2017-08-31T06:54:22.046Z,91
2017-08-31T06:55:24.460Z,91
2017-08-31T06:56:26.874Z,91
2017-08-31T06:57:29.627Z,91
2017-08-31T06:58:32.036Z,91
2017-08-31T06:59:34.445Z,91
2017-08-31T07:00:37.198Z,91
2017-08-31T07:01:39.619Z,91
2017-08-31T07:02:42.024Z,90
2017-08-31T07:03:44.430Z,90
2017-08-31T07:04:46.846Z,90
2017-08-31T07:05:49.261Z,90
2017-08-31T07:06:51.668Z,90
2017-08-31T07:07:54.084Z,90
2017-08-31T07:08:56.495Z,90
2017-08-31T07:09:58.910Z,90
2017-08-31T07:11:01.333Z,90
2017-08-31T07:12:03.744Z,90
2017-08-31T07:13:06.150Z,90
2017-08-31T07:14:08.567Z,90
2017-08-31T07:15:10.978Z,90
2017-08-31T07:16:13.384Z,90
2017-08-31T07:17:15.795Z,89
2017-08-31T07:18:18.224Z,89
2017-08-31T07:19:20.628Z,89
2017-08-31T07:20:23.380Z,89
2017-08-31T07:21:25.792Z,89
2017-08-31T07:22:28.203Z,89
2017-08-31T07:23:30.615Z,89
2017-08-31T07:24:33.031Z,89
2017-08-31T07:25:35.439Z,89
2017-08-31T07:26:37.849Z,89
2017-08-31T07:27:40.263Z,89
2017-08-31T07:28:42.679Z,88
2017-08-31T07:29:45.429Z,89
2017-08-31T07:30:47.846Z,89
2017-08-31T07:31:50.259Z,88
2017-08-31T07:32:52.675Z,88
2017-08-31T07:33:55.427Z,88
2017-08-31T07:34:57.834Z,88
2017-08-31T07:36:00.246Z,88
2017-08-31T07:37:02.668Z,87
2017-08-31T07:38:05.076Z,87
2017-08-31T07:39:07.496Z,87
2017-08-31T07:40:09.913Z,86
2017-08-31T07:41:12.343Z,86
2017-08-31T07:42:15.103Z,85
2017-08-31T07:43:17.522Z,85
2017-08-31T07:44:19.921Z,85
2017-08-31T07:45:22.673Z,85
2017-08-31T07:46:25.093Z,86
2017-08-31T07:47:27.506Z,85
2017-08-31T07:48:29.918Z,85
2017-08-31T07:49:32.668Z,85
2017-08-31T07:50:35.078Z,85
2017-08-31T07:51:37.495Z,86
2017-08-31T07:52:39.911Z,86
2017-08-31T07:53:42.315Z,86
2017-08-31T07:54:44.734Z,86
2017-08-31T07:55:47.151Z,85
2017-08-31T07:56:49.563Z,86
2017-08-31T07:57:51.978Z,86
2017-08-31T07:58:54.388Z,85
2017-08-31T07:59:56.791Z,86
2017-08-31T08:00:59.211Z,85
2017-08-31T08:02:01.625Z,86
2017-08-31T08:03:04.034Z,86
2017-08-31T08:04:06.460Z,86
2017-08-31T08:05:08.911Z,86
2017-08-31T08:06:11.330Z,87
2017-08-31T08:07:13.751Z,87
2017-08-31T08:08:16.152Z,87
2017-08-31T08:09:18.566Z,88
2017-08-31T08:10:20.982Z,87
2017-08-31T08:11:23.389Z,86
2017-08-31T08:12:26.141Z,87
2017-08-31T08:13:28.559Z,87
2017-08-31T08:14:30.966Z,87
2017-08-31T08:15:33.375Z,86
2017-08-31T08:16:36.127Z,86
2017-08-31T08:17:38.551Z,86
2017-08-31T08:18:40.956Z,87
2017-08-31T08:19:43.365Z,86
2017-08-31T08:20:45.771Z,86
2017-08-31T08:21:48.184Z,86
2017-08-31T08:22:50.600Z,86
2017-08-31T08:24:37.905Z,86
2017-08-31T08:25:40.367Z,85
2017-08-31T08:26:42.842Z,83
2017-08-31T08:27:45.321Z,83
2017-08-31T08:28:47.785Z,83
2017-08-31T08:29:50.264Z,83
2017-08-31T08:30:53.081Z,83
2017-08-31T08:31:55.549Z,82
2017-08-31T08:32:58.023Z,82
2017-08-31T08:34:00.491Z,82
2017-08-31T08:35:02.959Z,84
2017-08-31T08:36:05.440Z,83
2017-08-31T08:37:07.920Z,84
2017-08-31T08:38:10.386Z,82
2017-08-31T08:39:12.862Z,83
2017-08-31T08:40:15.328Z,83
2017-08-31T08:41:17.796Z,83
2017-08-31T08:42:20.273Z,83
2017-08-31T08:43:22.735Z,82
2017-08-31T08:44:25.212Z,83
2017-08-31T08:45:27.678Z,83
2017-08-31T08:46:30.152Z,83
2017-08-31T08:47:32.617Z,83
2017-08-31T08:48:35.089Z,83
2017-08-31T08:49:37.572Z,83
2017-08-31T08:50:40.047Z,83
2017-08-31T08:51:42.852Z,82
2017-08-31T08:52:45.331Z,83
2017-08-31T08:53:47.809Z,82
2017-08-31T08:54:50.287Z,81
2017-08-31T08:55:52.758Z,81
2017-08-31T08:56:55.223Z,81
2017-08-31T08:57:57.693Z,81
2017-08-31T08:59:00.526Z,81
2017-08-31T09:00:03.022Z,82
2017-08-31T09:01:05.839Z,82
2017-08-31T09:02:08.309Z,81
2017-08-31T09:03:11.121Z,82
2017-08-31T09:04:13.586Z,80
2017-08-31T09:05:16.061Z,80
2017-08-31T09:06:18.530Z,80
2017-08-31T09:07:21.006Z,80
2017-08-31T09:08:23.482Z,79
2017-08-31T09:09:25.948Z,79
2017-08-31T09:10:28.428Z,79
2017-08-31T09:11:30.897Z,79
2017-08-31T09:12:33.369Z,79
2017-08-31T09:13:35.846Z,79
2017-08-31T09:14:38.325Z,80
2017-08-31T09:15:41.146Z,79
2017-08-31T09:16:43.625Z,80
2017-08-31T09:17:46.098Z,81
2017-08-31T09:18:48.577Z,78
2017-08-31T09:19:51.047Z,79
2017-08-31T09:20:53.523Z,78
2017-08-31T09:21:56.334Z,78
2017-08-31T09:22:58.823Z,79
2017-08-31T09:24:01.300Z,78
2017-08-31T09:25:03.764Z,78
2017-08-31T09:26:06.233Z,78
2017-08-31T09:27:08.703Z,79
2017-08-31T09:28:11.181Z,79
2017-08-31T09:29:13.656Z,79
2017-08-31T09:30:16.136Z,79
2017-08-31T09:31:18.612Z,80
2017-08-31T09:32:21.077Z,79
2017-08-31T09:33:23.552Z,80
2017-08-31T09:34:26.360Z,79
2017-08-31T09:35:28.831Z,81
2017-08-31T09:36:31.309Z,79
2017-08-31T09:37:33.779Z,81
2017-08-31T09:38:36.243Z,81
2017-08-31T09:39:38.714Z,80
2017-08-31T09:40:41.186Z,81
2017-08-31T09:41:43.666Z,82
2017-08-31T09:42:46.483Z,81
2017-08-31T09:43:48.951Z,80
2017-08-31T09:44:51.429Z,81
2017-08-31T09:45:53.902Z,80
2017-08-31T09:46:56.381Z,81
2017-08-31T09:47:58.851Z,81
2017-08-31T09:49:01.333Z,82
2017-08-31T09:50:04.155Z,81
2017-08-31T09:51:06.625Z,81
2017-08-31T09:52:09.103Z,81
2017-08-31T09:53:11.573Z,82
2017-08-31T09:54:14.044Z,82
2017-08-31T09:55:16.514Z,82
2017-08-31T09:56:18.989Z,81
2017-08-31T09:57:21.462Z,82
2017-08-31T09:58:23.936Z,81
2017-08-31T09:59:26.414Z,82
2017-08-31T10:00:28.885Z,81
2017-08-31T10:01:31.361Z,81
2017-08-31T10:02:33.838Z,80
2017-08-31T10:03:36.652Z,80
2017-08-31T10:04:39.119Z,80
2017-08-31T10:05:41.597Z,80
2017-08-31T10:06:44.067Z,80
2017-08-31T10:07:46.548Z,80
2017-08-31T10:08:49.023Z,81
2017-08-31T10:09:51.494Z,80
2017-08-31T10:10:53.964Z,80
2017-08-31T10:11:56.440Z,80
2017-08-31T10:12:58.916Z,81
2017-08-31T10:14:01.378Z,82
2017-08-31T10:15:03.859Z,84
2017-08-31T10:16:06.326Z,82
2017-08-31T10:17:08.799Z,83
2017-08-31T10:18:11.269Z,83
2017-08-31T10:19:13.741Z,82
2017-08-31T10:20:16.199Z,82
2017-08-31T10:21:18.677Z,83
2017-08-31T10:22:21.145Z,82
2017-08-31T10:23:23.621Z,83
2017-08-31T10:24:26.098Z,81
2017-08-31T10:25:28.576Z,80
2017-08-31T10:26:31.056Z,81
2017-08-31T10:27:33.875Z,81
2017-08-31T10:28:36.339Z,80
2017-08-31T10:29:38.810Z,80
2017-08-31T10:30:41.285Z,79
2017-08-31T10:31:43.744Z,78
2017-08-31T10:32:46.216Z,79
2017-08-31T10:33:49.023Z,77
2017-08-31T10:34:51.492Z,77
2017-08-31T10:35:53.961Z,77
2017-08-31T10:36:56.440Z,77
2017-08-31T10:37:58.912Z,78
2017-08-31T10:39:01.394Z,77
2017-08-31T10:40:03.869Z,78
2017-08-31T10:41:06.708Z,77
2017-08-31T10:42:09.176Z,78
2017-08-31T10:43:11.655Z,78
2017-08-31T10:44:14.137Z,79
2017-08-31T10:45:16.615Z,78
2017-08-31T10:46:19.087Z,78
2017-08-31T10:47:21.911Z,78
2017-08-31T10:48:24.378Z,78
2017-08-31T10:49:26.850Z,79
2017-08-31T10:50:29.326Z,78
2017-08-31T10:51:31.804Z,78
2017-08-31T10:52:34.274Z,78
2017-08-31T10:53:36.753Z,78
2017-08-31T10:54:39.220Z,78
2017-08-31T10:55:41.698Z,75
2017-08-31T10:56:44.156Z,75
2017-08-31T10:57:46.626Z,75
2017-08-31T10:58:49.096Z,75
2017-08-31T10:59:51.568Z,75
2017-08-31T11:00:54.046Z,75
2017-08-31T11:01:56.512Z,76
2017-08-31T11:02:59.332Z,76
2017-08-31T11:04:01.805Z,77
2017-08-31T11:05:04.286Z,78
2017-08-31T11:06:06.755Z,76
2017-08-31T11:07:09.234Z,76
2017-08-31T11:08:11.707Z,78
2017-08-31T11:09:14.176Z,78
2017-08-31T11:10:16.642Z,76
2017-08-31T11:11:19.114Z,76
2017-08-31T11:12:21.579Z,78
2017-08-31T11:13:24.061Z,78
2017-08-31T11:14:26.531Z,78
2017-08-31T11:15:29.002Z,78
2017-08-31T11:16:31.468Z,74
2017-08-31T11:17:33.944Z,75
2017-08-31T11:18:36.757Z,74
2017-08-31T11:19:39.219Z,74
2017-08-31T11:20:41.699Z,73
2017-08-31T11:21:44.168Z,74
2017-08-31T11:22:46.637Z,74
2017-08-31T11:23:49.111Z,73
2017-08-31T11:24:51.584Z,73
2017-08-31T11:25:54.053Z,73
2017-08-31T11:26:56.535Z,74
2017-08-31T11:27:59.123Z,75
2017-08-31T11:29:01.622Z,74
2017-08-31T11:30:04.765Z,74
2017-08-31T11:31:07.759Z,75
2017-08-31T11:32:11.159Z,76
2017-08-31T11:33:13.733Z,73
2017-08-31T11:34:16.144Z,74
2017-08-31T11:35:18.570Z,74
2017-08-31T11:36:21.040Z,73
2017-08-31T11:37:23.528Z,72
2017-08-31T11:38:25.952Z,74
2017-08-31T11:39:28.426Z,75
2017-08-31T11:40:30.889Z,76
2017-08-31T11:41:33.357Z,74
2017-08-31T11:42:35.831Z,74
2017-08-31T11:43:38.308Z,77
2017-08-31T11:44:41.126Z,74
2017-08-31T11:45:43.588Z,75
2017-08-31T11:46:46.405Z,75
2017-08-31T11:47:48.882Z,75
2017-08-31T11:48:51.344Z,78
2017-08-31T11:49:53.814Z,74
2017-08-31T11:50:56.288Z,74
2017-08-31T11:51:58.761Z,76
2017-08-31T11:53:01.240Z,74
2017-08-31T11:54:04.059Z,75
2017-08-31T11:55:06.524Z,75
2017-08-31T11:56:09.002Z,77
2017-08-31T11:57:11.475Z,76
2017-08-31T11:58:13.943Z,74
2017-08-31T11:59:16.759Z,74
2017-08-31T12:00:19.218Z,75
2017-08-31T12:01:21.690Z,75
2017-08-31T12:02:24.172Z,76
2017-08-31T12:03:26.638Z,76
2017-08-31T12:04:29.121Z,77
2017-08-31T12:05:31.593Z,78
2017-08-31T12:06:34.072Z,77
2017-08-31T12:07:36.543Z,78
2017-08-31T12:08:39.026Z,75
2017-08-31T12:09:41.491Z,76
2017-08-31T12:10:44.064Z,78
2017-08-31T12:11:46.539Z,77
2017-08-31T12:12:49.012Z,76
2017-08-31T12:13:51.478Z,75
2017-08-31T12:14:53.946Z,76
2017-08-31T12:15:56.418Z,76
2017-08-31T12:16:58.891Z,77
2017-08-31T12:18:01.357Z,77
2017-08-31T12:19:04.184Z,77
2017-08-31T12:20:06.649Z,77
2017-08-31T12:21:09.130Z,78
2017-08-31T12:22:11.601Z,79
2017-08-31T12:23:14.066Z,79
2017-08-31T12:24:16.536Z,80
2017-08-31T12:25:19.013Z,78
2017-08-31T12:26:21.476Z,78
2017-08-31T12:27:23.953Z,78
2017-08-31T12:28:26.419Z,78
2017-08-31T12:29:29.253Z,78
2017-08-31T12:30:31.722Z,79
2017-08-31T12:31:34.198Z,78
2017-08-31T12:32:36.667Z,80
2017-08-31T12:33:39.142Z,80
2017-08-31T12:34:41.613Z,79
2017-08-31T12:35:44.428Z,79
2017-08-31T12:36:46.892Z,78
2017-08-31T12:37:49.381Z,78
2017-08-31T12:38:51.820Z,77
2017-08-31T12:39:54.288Z,78
2017-08-31T12:40:56.758Z,77
2017-08-31T12:41:59.224Z,77
2017-08-31T12:43:01.692Z,78
2017-08-31T12:44:04.514Z,77
2017-08-31T12:45:06.990Z,76
2017-08-31T12:46:10.241Z,76
2017-08-31T12:47:12.747Z,76
2017-08-31T12:48:15.211Z,78
2017-08-31T12:49:17.678Z,79
2017-08-31T12:50:20.159Z,77
2017-08-31T12:51:22.627Z,78
2017-08-31T12:52:25.091Z,80
2017-08-31T12:53:27.562Z,79
2017-08-31T12:54:30.022Z,76
2017-08-31T12:55:32.839Z,77
2017-08-31T12:56:35.312Z,77
2017-08-31T12:57:37.790Z,77
2017-08-31T12:58:40.596Z,78
2017-08-31T12:59:43.076Z,79
2017-08-31T13:00:45.542Z,78
2017-08-31T13:01:48.026Z,78
2017-08-31T13:02:50.498Z,80
2017-08-31T13:03:52.960Z,78
2017-08-31T13:04:55.425Z,77
2017-08-31T13:05:58.248Z,77
2017-08-31T13:07:00.716Z,78
2017-08-31T13:08:03.185Z,77
2017-08-31T13:09:05.648Z,77
2017-08-31T13:10:08.121Z,78
2017-08-31T13:11:10.595Z,76
2017-08-31T13:12:13.058Z,77
2017-08-31T13:13:15.529Z,78
2017-08-31T13:14:17.995Z,76
2017-08-31T13:15:20.459Z,76
2017-08-31T13:16:22.932Z,76
2017-08-31T13:17:25.405Z,78
2017-08-31T13:18:27.886Z,76
2017-08-31T13:19:30.354Z,77
2017-08-31T13:20:32.824Z,78
2017-08-31T13:21:35.638Z,78
2017-08-31T13:22:38.108Z,78
2017-08-31T13:23:40.572Z,80
2017-08-31T13:24:43.038Z,80
2017-08-31T13:25:45.498Z,80
2017-08-31T13:26:47.974Z,81
2017-08-31T13:27:50.445Z,81
2017-08-31T13:28:53.263Z,81
2017-08-31T13:29:55.731Z,81
2017-08-31T13:30:58.201Z,81
2017-08-31T13:32:00.666Z,79
2017-08-31T13:33:03.152Z,79
2017-08-31T13:34:05.610Z,80
2017-08-31T13:35:08.089Z,78
2017-08-31T13:36:10.557Z,79
2017-08-31T13:37:13.368Z,80
2017-08-31T13:38:15.838Z,79
2017-08-31T13:39:18.306Z,80
2017-08-31T13:40:21.121Z,79
2017-08-31T13:41:23.594Z,77
2017-08-31T13:42:26.050Z,78
2017-08-31T13:43:28.520Z,79
2017-08-31T13:44:30.999Z,78
2017-08-31T13:45:33.472Z,77
2017-08-31T13:46:36.284Z,78
2017-08-31T13:47:38.752Z,78
2017-08-31T13:48:41.226Z,79
2017-08-31T13:49:43.693Z,78
2017-08-31T13:50:46.162Z,78
2017-08-31T13:51:48.620Z,78
2017-08-31T13:52:51.087Z,79
2017-08-31T13:53:53.549Z,79
2017-08-31T13:54:56.013Z,79
2017-08-31T13:55:58.556Z,78
2017-08-31T13:57:01.015Z,78
2017-08-31T13:58:03.489Z,77
2017-08-31T13:59:05.961Z,78
2017-08-31T14:00:08.443Z,78
2017-08-31T14:01:10.921Z,77
2017-08-31T14:02:13.387Z,77
2017-08-31T14:03:15.856Z,78
2017-08-31T14:04:18.330Z,77
2017-08-31T14:05:21.160Z,78
2017-08-31T14:06:23.616Z,78
2017-08-31T14:07:26.094Z,78
2017-08-31T14:08:28.568Z,78
2017-08-31T14:09:31.046Z,78
2017-08-31T14:10:33.513Z,78
2017-08-31T14:11:35.979Z,78
2017-08-31T14:12:38.450Z,78
2017-08-31T14:13:40.929Z,79
2017-08-31T14:14:43.407Z,79
2017-08-31T14:15:45.891Z,78
2017-08-31T14:16:48.356Z,79
2017-08-31T14:17:50.825Z,78
2017-08-31T14:18:53.294Z,79
2017-08-31T14:19:55.761Z,79
2017-08-31T14:20:58.237Z,80
2017-08-31T14:22:00.703Z,79
2017-08-31T14:23:03.177Z,79
2017-08-31T14:24:06.002Z,80
2017-08-31T14:25:08.497Z,79
2017-08-31T14:26:11.341Z,79
2017-08-31T14:27:14.319Z,80
2017-08-31T14:28:17.599Z,79
2017-08-31T14:29:20.412Z,79
2017-08-31T14:30:22.880Z,77
2017-08-31T14:31:25.340Z,77
2017-08-31T14:32:27.811Z,77
2017-08-31T14:33:30.285Z,78
2017-08-31T14:34:32.753Z,77
2017-08-31T14:35:35.225Z,78
2017-08-31T14:36:37.698Z,80
2017-08-31T14:37:40.534Z,78
2017-08-31T14:38:43.011Z,79
2017-08-31T14:39:45.499Z,79
2017-08-31T14:40:47.964Z,80
2017-08-31T14:41:50.433Z,79
2017-08-31T14:42:52.898Z,78